Sterling, MI (48659)

4:01 AM EST on December 18, 2014 (GMT -0500)
Pinconning farm country, (Pintucky Hawg Farm) | Change Station
CLOSE
Current Station
Personal Weather Station
Location: Pinconning, MI
Elevation: 623 ft
Nearby Weather Stations

Elev 623 ft 43.82 °N, 84.03 °W | Updated 7 minutes ago

Overcast
Overcast
29.3 °F
Feels Like 29 °F
N
1.6
Wind Variable Wind from West

Today
High -- | Low -- °F
--% Chance of Precip.
Yesterday
High -- | Low -- °F
Precip. -- in
8:06 AM 4:59 PM
Waning Crescent, 16% visible
Pressure 30.19 in
Visibility 10.0 miles
Clouds Overcast 1600 ft
Windchill 29 °F
Dew Point 29 °F
Humidity 97%
Rainfall 0.00 in
Snow Depth Not available.
UV 0 out of 12
Pollen .10 out of 12
Air Quality Not available.
Flu Activity Not available.
METAR KMBS 180853Z 27009KT 10SM OVC016 M01/M03 A3017 RMK AO2 SLP224 T10061028 51004

More Conditions Fewer Conditions

Pressure 30.19 in
Visibility 10.0 miles
Clouds Overcast 1600 ft
Windchill 29 °F
Dew Point 29 °F
Humidity 97%
Rainfall 0.00 in
Snow Depth Not available.
UV 0 out of 12
Pollen .10 out of 12
Air Quality Not available.
Flu Activity Not available.
METAR KMBS 180853Z 27009KT 10SM OVC016 M01/M03 A3017 RMK AO2 SLP224 T10061028 51004

More Conditions Fewer Conditions

Nowcast | as of 4:00 am EST on December 18, 2014

At 5 am...cloudy. Temperature 26. Northwest winds 7 mph. At 7 am...cloudy. Temperature 25. North winds 7 mph. At 9 am...cloudy. Temperature 25. North winds 6 mph. At 11 am...mostly cloudy. Temperature 27. Northwest winds 6 mph.

×

10-Day Weather Forecast

Almanac

Astronomy

Dec. 18, 2014 Rise Set
Actual Time
Civil Twilight
Nautical Twilight
Astronomical Twilight
Moon
Length of Visible Light
Length of Day
Tomorrow will be .
, % of the Moon is Illuminated

Today's Extremes

State Highs State Lows

Community

WunderPhotos

Upload Photos

1,778,907 photos uploaded!

WunderBlogs® & News

Nearby

Air Quality

  Air Quality AQ Index Pollutant
Not available.

Snow Depth

Station Depth Elevation

Earthquake Activity

City Distance Mag. Time & Date
Minimum magnitude displayed is 2.5.

Coastal Water Temperatures

Place Temperature

Nearby Weather Stations